createdAt,value
2022-08-29T00:00:59.023Z,19.86
2022-08-29T00:01:59.389Z,19.84
2022-08-29T00:02:59.659Z,19.83
2022-08-29T00:03:59.991Z,19.79
2022-08-29T00:05:00.224Z,19.78
2022-08-29T00:06:00.527Z,19.72
2022-08-29T00:07:00.826Z,19.69
2022-08-29T00:08:01.149Z,19.69
2022-08-29T00:09:01.453Z,19.63
2022-08-29T00:10:01.798Z,19.66
2022-08-29T00:11:02.098Z,19.66
2022-08-29T00:12:02.390Z,19.68
2022-08-29T00:13:02.678Z,19.66
2022-08-29T00:14:02.997Z,19.63
2022-08-29T00:15:03.305Z,19.63
2022-08-29T00:16:03.599Z,19.60
2022-08-29T00:17:03.902Z,19.57
2022-08-29T00:18:04.196Z,19.57
2022-08-29T00:19:04.515Z,19.53
2022-08-29T00:20:04.819Z,19.51
2022-08-29T00:21:05.118Z,19.48
2022-08-29T00:22:05.476Z,19.48
2022-08-29T00:23:05.649Z,19.46
2022-08-29T00:24:05.957Z,19.42
2022-08-29T00:25:06.243Z,19.40
2022-08-29T00:26:06.581Z,19.42
2022-08-29T00:27:06.893Z,19.38
2022-08-29T00:28:07.261Z,19.38
2022-08-29T00:29:07.471Z,19.39
2022-08-29T00:30:07.739Z,19.36
2022-08-29T00:31:08.068Z,19.35
2022-08-29T00:32:08.425Z,19.32
2022-08-29T00:33:08.669Z,19.33
2022-08-29T00:34:08.963Z,19.33
2022-08-29T00:35:09.267Z,19.31
2022-08-29T00:36:09.585Z,19.33
2022-08-29T00:37:09.894Z,19.32
2022-08-29T00:38:10.283Z,19.31
2022-08-29T00:39:10.460Z,19.28
2022-08-29T00:40:10.772Z,19.28
2022-08-29T00:41:11.108Z,19.25
2022-08-29T00:42:11.402Z,19.23
2022-08-29T00:43:11.710Z,19.20
2022-08-29T00:44:12.009Z,19.20
2022-08-29T00:45:12.318Z,19.21
2022-08-29T00:46:16.494Z,19.20
2022-08-29T00:47:12.991Z,19.21
2022-08-29T00:48:13.457Z,19.21
2022-08-29T00:49:13.436Z,19.23
2022-08-29T00:50:13.755Z,19.23
2022-08-29T00:51:14.068Z,19.24
2022-08-29T00:52:14.403Z,19.24
2022-08-29T02:56:47.564Z,18.28
2022-08-29T02:57:49.117Z,18.37
2022-08-29T02:58:48.013Z,18.39
2022-08-29T02:59:48.362Z,18.40
2022-08-29T03:00:48.601Z,18.42
2022-08-29T03:01:48.871Z,18.43
2022-08-29T03:02:49.108Z,18.42
2022-08-29T03:03:49.386Z,18.42
2022-08-29T03:04:49.706Z,18.43
2022-08-29T03:05:50.013Z,18.42
2022-08-29T03:06:50.328Z,18.42
2022-08-29T03:07:51.140Z,18.40
2022-08-29T03:08:50.949Z,18.39
2022-08-29T03:09:51.288Z,18.37
2022-08-29T03:10:51.582Z,18.37
2022-08-29T03:11:51.885Z,18.36
2022-08-29T03:12:52.195Z,18.34
2022-08-29T03:13:52.488Z,18.33
2022-08-29T03:14:53.788Z,18.31
2022-08-29T03:15:53.063Z,18.33
2022-08-29T03:16:53.263Z,18.29
2022-08-29T03:17:53.586Z,18.27
2022-08-29T03:18:53.904Z,18.25
2022-08-29T03:19:54.198Z,18.22
2022-08-29T03:20:54.507Z,18.19
2022-08-29T03:21:54.804Z,18.19
2022-08-29T03:22:55.120Z,18.18
2022-08-29T03:23:55.417Z,18.17
2022-08-29T03:24:55.746Z,18.15
2022-08-29T03:25:55.925Z,18.13
2022-08-29T03:26:56.877Z,18.12
2022-08-29T03:27:56.465Z,18.10
2022-08-29T03:28:56.764Z,18.10
2022-08-29T03:29:57.098Z,18.12
2022-08-29T03:30:57.441Z,18.15
2022-08-29T03:31:57.659Z,18.10
2022-08-29T03:32:57.960Z,18.07
2022-08-29T03:33:58.232Z,18.07
2022-08-29T03:34:58.535Z,18.03
2022-08-29T03:35:58.798Z,18.02
2022-08-29T03:36:59.133Z,18.02
2022-08-29T03:37:59.436Z,18.03
2022-08-29T03:38:59.735Z,17.95
2022-08-29T03:40:00.037Z,17.92
2022-08-29T03:41:00.247Z,17.95
2022-08-29T03:42:00.544Z,17.91
2022-08-29T03:43:00.864Z,17.94
2022-08-29T03:44:01.183Z,17.94
2022-08-29T03:45:01.490Z,17.95
2022-08-29T03:46:01.826Z,18.00
2022-08-29T03:47:02.170Z,18.03
2022-08-29T03:48:02.466Z,18.00
2022-08-29T03:49:02.755Z,18.00
2022-08-29T03:50:03.059Z,17.99
2022-08-29T03:51:03.364Z,17.94
2022-08-29T03:52:03.706Z,17.89
2022-08-29T03:53:03.994Z,17.85
2022-08-29T03:54:04.326Z,17.84
2022-08-29T03:55:04.627Z,17.87
2022-08-29T03:56:04.948Z,17.87
2022-08-29T03:57:05.263Z,17.91
2022-08-29T03:58:05.563Z,17.92
2022-08-29T03:59:05.871Z,17.94
2022-08-29T04:00:06.186Z,17.92
2022-08-29T04:01:06.468Z,17.88
2022-08-29T04:02:06.849Z,17.88
2022-08-29T04:03:07.160Z,17.89
2022-08-29T04:04:07.394Z,17.92
2022-08-29T04:05:08.459Z,17.91
2022-08-29T04:06:08.007Z,17.92
2022-08-29T04:07:08.341Z,17.91
2022-08-29T04:08:08.839Z,17.88
2022-08-29T04:09:08.978Z,17.84
2022-08-29T04:10:09.282Z,17.84
2022-08-29T04:11:09.580Z,17.79
2022-08-29T04:12:09.921Z,17.74
2022-08-29T04:13:10.228Z,17.70
2022-08-29T04:14:10.516Z,17.67
2022-08-29T04:15:10.797Z,17.69
2022-08-29T04:16:11.150Z,17.67
2022-08-29T04:17:11.382Z,17.64
2022-08-29T04:18:11.772Z,17.63
2022-08-29T04:19:12.019Z,17.63
2022-08-29T04:20:12.333Z,17.59
2022-08-29T04:21:12.632Z,17.57
2022-08-29T04:22:12.942Z,17.57
2022-08-29T04:23:13.238Z,17.57
2022-08-29T04:24:13.537Z,17.55
2022-08-29T04:25:13.810Z,17.51
2022-08-29T04:26:35.190Z,17.51
2022-08-29T04:27:15.442Z,17.50
2022-08-29T04:28:14.913Z,17.51
2022-08-29T04:29:14.969Z,17.53
2022-08-29T04:30:15.257Z,17.57
2022-08-29T04:31:15.578Z,17.57
2022-08-29T04:32:15.809Z,17.57
2022-08-29T04:33:17.063Z,17.55
2022-08-29T04:34:17.429Z,17.53
2022-08-29T04:35:16.670Z,17.51
2022-08-29T04:36:16.968Z,17.48
2022-08-29T04:37:17.322Z,17.48
2022-08-29T04:38:17.530Z,17.47
2022-08-29T04:39:17.819Z,17.44
2022-08-29T04:40:18.159Z,17.43
2022-08-29T04:41:18.381Z,17.38
2022-08-29T04:42:20.334Z,17.38
2022-08-29T04:43:18.988Z,17.40
2022-08-29T04:44:19.292Z,17.35
2022-08-29T04:45:19.589Z,17.38
2022-08-29T04:46:24.426Z,17.35
2022-08-29T04:47:21.210Z,17.36
2022-08-29T04:48:20.446Z,17.38
2022-08-29T04:49:20.789Z,17.38
2022-08-29T04:50:20.971Z,17.38
2022-08-29T04:51:21.277Z,17.40
2022-08-29T04:52:21.574Z,17.38
2022-08-29T04:53:21.887Z,17.41
2022-08-29T04:54:22.211Z,17.35
2022-08-29T04:55:22.662Z,17.38
2022-08-29T04:56:22.818Z,17.40
2022-08-29T04:57:23.184Z,17.44
2022-08-29T04:58:23.370Z,17.53
2022-08-29T04:59:23.669Z,17.55
2022-08-29T05:00:23.975Z,17.62
2022-08-29T05:01:24.398Z,17.64
2022-08-29T05:02:24.550Z,17.57
2022-08-29T05:03:24.759Z,17.55
2022-08-29T05:04:25.070Z,17.55
2022-08-29T05:05:25.375Z,17.55
2022-08-29T05:06:25.683Z,17.54
2022-08-29T05:07:25.977Z,17.55
2022-08-29T05:08:26.259Z,17.54
2022-08-29T05:09:26.578Z,17.57
2022-08-29T05:10:26.897Z,17.55
2022-08-29T05:11:27.201Z,17.54
2022-08-29T05:12:27.499Z,17.53
2022-08-29T05:13:27.803Z,17.51
2022-08-29T05:14:28.097Z,17.51
2022-08-29T05:15:28.420Z,17.59
2022-08-29T05:16:28.623Z,17.62
2022-08-29T05:17:28.929Z,17.64
2022-08-29T05:18:29.220Z,17.67
2022-08-29T05:19:29.549Z,17.70
2022-08-29T05:20:30.845Z,17.71
2022-08-29T05:21:30.085Z,17.74
2022-08-29T05:22:30.409Z,17.78
2022-08-29T05:23:30.707Z,17.81
2022-08-29T05:24:31.006Z,17.82
2022-08-29T05:25:31.311Z,17.81
2022-08-29T05:26:31.579Z,17.84
2022-08-29T05:27:31.922Z,17.84
2022-08-29T05:28:32.110Z,17.82
2022-08-29T05:29:32.403Z,17.81
2022-08-29T05:30:34.605Z,17.79
2022-08-29T05:31:33.093Z,17.81
2022-08-29T05:32:33.279Z,17.81
2022-08-29T05:33:33.572Z,17.79
2022-08-29T05:34:35.129Z,17.76
2022-08-29T05:35:34.190Z,17.78
2022-08-29T05:36:34.493Z,17.79
2022-08-29T05:37:34.766Z,17.81
2022-08-29T05:38:35.086Z,17.85
2022-08-29T05:39:35.414Z,17.89
2022-08-29T05:40:35.742Z,17.95
2022-08-29T05:41:38.425Z,17.99
2022-08-29T05:42:36.345Z,18.02
2022-08-29T05:43:36.633Z,18.04
2022-08-29T05:44:36.920Z,18.07
2022-08-29T05:45:37.225Z,18.12
2022-08-29T05:46:37.533Z,18.10
2022-08-29T05:47:37.884Z,18.17
2022-08-29T05:48:38.183Z,18.18
2022-08-29T05:49:38.466Z,18.19
2022-08-29T05:50:38.774Z,18.25
2022-08-29T05:51:39.964Z,18.29
2022-08-29T05:52:39.438Z,18.31
2022-08-29T05:53:39.734Z,18.36
2022-08-29T05:54:40.068Z,18.37
2022-08-29T05:55:40.252Z,18.42
2022-08-29T05:56:40.610Z,18.46
2022-08-29T05:57:40.931Z,18.50
2022-08-29T05:58:41.222Z,18.55
2022-08-29T05:59:41.571Z,18.55
2022-08-29T06:00:41.880Z,18.58
2022-08-29T06:01:42.138Z,18.62
2022-08-29T06:02:42.558Z,18.67
2022-08-29T06:03:45.938Z,18.70
2022-08-29T06:04:43.015Z,18.76
2022-08-29T06:05:43.339Z,18.80
2022-08-29T06:06:43.626Z,18.84
2022-08-29T06:07:43.910Z,18.91
2022-08-29T06:08:44.193Z,18.94
2022-08-29T06:09:44.560Z,18.98
2022-08-29T06:10:44.866Z,19.02
2022-08-29T06:11:45.182Z,19.11
2022-08-29T06:12:45.489Z,19.15
2022-08-29T06:13:45.801Z,19.21
2022-08-29T06:14:50.494Z,19.24
2022-08-29T06:15:46.481Z,19.31
2022-08-29T06:16:46.683Z,19.36
2022-08-29T06:17:47.036Z,19.40
2022-08-29T06:18:47.234Z,19.42
2022-08-29T06:19:47.543Z,19.48
2022-08-29T06:20:47.857Z,19.53
2022-08-29T06:21:48.156Z,19.55
2022-08-29T06:22:48.488Z,19.60
2022-08-29T06:23:48.782Z,19.63
2022-08-29T06:24:49.091Z,19.70
2022-08-29T06:25:49.404Z,19.76
2022-08-29T06:26:49.643Z,19.80
2022-08-29T06:27:49.972Z,19.83
2022-08-29T06:28:50.276Z,19.86
2022-08-29T06:29:50.559Z,19.90
2022-08-29T06:30:50.890Z,19.91
2022-08-29T06:31:51.221Z,19.95
2022-08-29T06:32:51.410Z,19.95
2022-08-29T06:33:51.743Z,19.98
2022-08-29T06:34:52.047Z,19.98
2022-08-29T06:35:52.416Z,19.98
2022-08-29T06:36:52.595Z,19.98
2022-08-29T06:37:52.892Z,19.94
2022-08-29T06:38:53.170Z,19.94
2022-08-29T06:39:53.453Z,19.93
2022-08-29T06:40:53.762Z,19.93
2022-08-29T06:41:54.075Z,19.94
2022-08-29T06:42:54.405Z,19.94
2022-08-29T06:43:54.713Z,19.95
2022-08-29T06:44:55.031Z,19.97
2022-08-29T06:45:55.397Z,19.97
2022-08-29T06:46:55.565Z,20.00
2022-08-29T06:47:55.903Z,20.00
2022-08-29T06:48:56.196Z,20.02
2022-08-29T06:49:56.482Z,20.02
2022-08-29T06:50:56.774Z,20.02
2022-08-29T06:51:58.602Z,20.03
2022-08-29T06:53:14.539Z,20.02
2022-08-29T06:53:58.716Z,20.02
2022-08-29T06:54:57.947Z,20.02
2022-08-29T06:55:58.235Z,20.00
2022-08-29T06:56:58.533Z,20.00
2022-08-29T06:57:58.873Z,19.97
2022-08-29T06:58:59.156Z,20.00
2022-08-29T06:59:59.435Z,20.00
2022-08-29T07:00:59.768Z,20.00
2022-08-29T07:02:00.171Z,20.02
2022-08-29T07:03:00.449Z,20.02
2022-08-29T07:04:00.684Z,20.00
2022-08-29T07:05:01.688Z,19.98
2022-08-29T07:06:01.165Z,20.00
2022-08-29T07:07:01.464Z,20.00
2022-08-29T07:08:01.767Z,19.98
2022-08-29T07:09:02.093Z,19.97
2022-08-29T07:10:02.375Z,19.98
2022-08-29T07:11:02.692Z,19.98
2022-08-29T07:12:03.062Z,19.94
2022-08-29T07:13:03.245Z,19.95
2022-08-29T07:14:03.559Z,19.97
2022-08-29T07:15:03.856Z,20.00
2022-08-29T07:16:04.229Z,20.03
2022-08-29T07:17:04.410Z,20.06
2022-08-29T07:18:04.713Z,20.08
2022-08-29T07:19:05.001Z,20.12
2022-08-29T07:20:05.279Z,20.10
2022-08-29T07:21:05.573Z,20.13
2022-08-29T07:22:05.891Z,20.15
2022-08-29T07:23:06.185Z,20.18
2022-08-29T07:24:06.526Z,20.21
2022-08-29T07:25:06.717Z,20.23
2022-08-29T07:26:07.015Z,20.25
2022-08-29T07:27:08.267Z,20.25
2022-08-29T07:28:07.914Z,20.27
2022-08-29T07:29:07.946Z,20.28
2022-08-29T07:30:08.240Z,20.33
2022-08-29T07:31:08.569Z,20.33
2022-08-29T07:32:08.796Z,20.34
2022-08-29T07:33:09.100Z,20.35
2022-08-29T07:34:09.389Z,20.38
2022-08-29T07:35:13.357Z,20.35
2022-08-29T07:36:09.968Z,20.38
2022-08-29T07:37:10.283Z,20.35
2022-08-29T07:38:10.580Z,20.35
2022-08-29T07:39:10.917Z,20.39
2022-08-29T07:40:11.263Z,20.41
2022-08-29T07:41:11.469Z,20.42
2022-08-29T07:42:11.687Z,20.42
2022-08-29T07:43:14.474Z,20.46
2022-08-29T07:44:13.313Z,20.49
2022-08-29T07:45:12.547Z,20.49
2022-08-29T07:46:12.916Z,20.53
2022-08-29T07:47:13.088Z,20.51
2022-08-29T07:48:13.397Z,20.53
2022-08-29T07:49:13.746Z,20.56
2022-08-29T07:50:15.824Z,20.54
2022-08-29T07:51:14.348Z,20.58
2022-08-29T07:52:14.679Z,20.59
2022-08-29T07:53:15.115Z,20.59
2022-08-29T07:54:15.314Z,20.59
2022-08-29T07:55:15.625Z,20.61
2022-08-29T07:56:15.937Z,20.61
2022-08-29T07:57:16.288Z,20.61
2022-08-29T07:58:16.654Z,20.64
2022-08-29T07:59:16.888Z,20.66
2022-08-29T08:00:17.195Z,20.66
2022-08-29T08:01:21.620Z,20.71
2022-08-29T08:02:17.775Z,20.72
2022-08-29T08:03:18.011Z,20.72
2022-08-29T08:04:18.321Z,20.72
2022-08-29T08:05:18.566Z,20.76
2022-08-29T08:06:18.862Z,20.79
2022-08-29T08:07:19.185Z,20.80
2022-08-29T08:08:19.823Z,20.81
2022-08-29T08:09:19.697Z,20.81
2022-08-29T08:10:19.985Z,20.83
2022-08-29T08:11:20.296Z,20.84
2022-08-29T08:12:20.603Z,20.87
2022-08-29T08:13:20.932Z,20.87
2022-08-29T08:14:21.246Z,20.90
2022-08-29T08:15:23.373Z,20.93
2022-08-29T08:16:21.811Z,20.95
2022-08-29T08:17:22.110Z,20.96
2022-08-29T08:18:22.444Z,20.95
2022-08-29T08:19:22.733Z,20.96
2022-08-29T08:20:23.012Z,20.96
2022-08-29T08:21:23.335Z,20.98
2022-08-29T08:22:23.599Z,20.99
2022-08-29T08:23:23.902Z,21.05
2022-08-29T08:24:24.215Z,21.13
2022-08-29T08:25:24.625Z,21.16
2022-08-29T08:26:24.803Z,21.17
2022-08-29T08:27:25.106Z,21.21
2022-08-29T08:28:25.450Z,21.21
2022-08-29T08:29:25.638Z,21.21
2022-08-29T08:30:26.102Z,21.21
2022-08-29T08:31:26.290Z,21.23
2022-08-29T08:32:27.672Z,21.24
2022-08-29T08:33:27.875Z,21.24
2022-08-29T08:34:27.091Z,21.14
2022-08-29T08:35:27.359Z,21.06
2022-08-29T08:36:27.840Z,20.98
2022-08-29T08:37:28.336Z,20.96
2022-08-29T08:38:28.309Z,20.95
2022-08-29T08:39:28.639Z,20.96
2022-08-29T08:40:28.970Z,21.01
2022-08-29T08:41:29.211Z,21.05
2022-08-29T08:42:29.580Z,21.11
2022-08-29T08:43:29.757Z,21.19
2022-08-29T08:44:30.066Z,21.24
2022-08-29T08:45:31.367Z,21.29
2022-08-29T08:46:30.661Z,21.26
2022-08-29T08:47:30.912Z,21.21
2022-08-29T08:48:31.229Z,21.17
2022-08-29T08:49:31.534Z,21.19
2022-08-29T08:50:31.852Z,21.16
2022-08-29T08:51:32.191Z,21.26
2022-08-29T08:52:32.505Z,21.30
2022-08-29T08:53:32.803Z,21.35
2022-08-29T08:54:33.087Z,21.21
2022-08-29T08:55:33.386Z,20.99
2022-08-29T08:56:33.684Z,20.95
2022-08-29T08:57:33.993Z,20.93
2022-08-29T08:58:34.328Z,21.04
2022-08-29T08:59:34.630Z,21.11
2022-08-29T09:00:34.925Z,21.11
2022-08-29T09:01:35.291Z,21.09
2022-08-29T09:02:35.604Z,21.13
2022-08-29T09:03:35.829Z,21.11
2022-08-29T09:04:36.113Z,21.08
2022-08-29T09:05:36.426Z,21.13
2022-08-29T09:06:36.664Z,21.16
2022-08-29T09:07:37.013Z,21.23
2022-08-29T09:08:37.210Z,21.27
2022-08-29T09:09:37.504Z,21.26
2022-08-29T09:10:37.798Z,21.34
2022-08-29T09:11:38.094Z,21.39
2022-08-29T09:12:38.407Z,21.48
2022-08-29T09:13:38.713Z,21.48
2022-08-29T09:14:39.027Z,21.39
2022-08-29T09:15:39.337Z,21.36
2022-08-29T09:16:39.691Z,21.35
2022-08-29T09:17:39.970Z,21.41
2022-08-29T09:18:40.146Z,21.41
2022-08-29T09:19:40.461Z,21.44
2022-08-29T09:20:40.759Z,21.36
2022-08-29T09:21:42.026Z,21.36
2022-08-29T09:22:41.382Z,21.32
2022-08-29T09:23:41.564Z,21.32
2022-08-29T09:24:41.849Z,21.34
2022-08-29T09:25:42.141Z,21.26
2022-08-29T09:26:42.484Z,21.26
2022-08-29T09:27:42.687Z,21.24
2022-08-29T09:28:43.006Z,21.23
2022-08-29T09:29:43.310Z,21.26
2022-08-29T09:30:43.608Z,21.26
2022-08-29T09:31:44.014Z,21.32
2022-08-29T09:32:44.215Z,21.42
2022-08-29T09:33:44.565Z,21.42
2022-08-29T09:35:07.446Z,21.39
2022-08-29T09:35:46.069Z,21.38
2022-08-29T09:36:46.068Z,21.48
2022-08-29T09:37:45.627Z,21.57
2022-08-29T09:38:45.901Z,21.63
2022-08-29T09:39:49.998Z,21.69
2022-08-29T09:40:47.584Z,21.71
2022-08-29T09:41:46.839Z,21.82
2022-08-29T09:42:47.211Z,21.95
2022-08-29T09:43:47.409Z,22.06
2022-08-29T09:44:47.712Z,22.19
2022-08-29T09:45:48.061Z,22.31
2022-08-29T09:46:48.250Z,22.46
2022-08-29T09:47:48.577Z,22.56
2022-08-29T09:48:48.921Z,22.54
2022-08-29T09:49:49.109Z,22.60
2022-08-29T09:50:49.432Z,22.69
2022-08-29T09:51:49.742Z,22.62
2022-08-29T09:52:50.061Z,22.57
2022-08-29T09:53:50.414Z,22.54
2022-08-29T09:54:50.703Z,22.49
2022-08-29T09:55:50.981Z,22.53
2022-08-29T09:56:51.264Z,22.62
2022-08-29T09:57:51.568Z,22.72
2022-08-29T09:58:51.887Z,22.82
2022-08-29T09:59:52.186Z,22.87
2022-08-29T10:00:52.512Z,22.99
2022-08-29T10:01:52.782Z,22.89
2022-08-29T10:02:53.066Z,22.86
2022-08-29T10:03:53.393Z,22.74
2022-08-29T10:04:55.510Z,22.75
2022-08-29T10:05:53.931Z,22.83
2022-08-29T10:06:54.241Z,22.87
2022-08-29T10:07:54.525Z,22.97
2022-08-29T10:08:54.832Z,23.14
2022-08-29T10:09:55.131Z,23.20
2022-08-29T10:10:55.408Z,23.22
2022-08-29T10:11:56.563Z,23.19
2022-08-29T10:12:56.006Z,23.29
2022-08-29T10:13:56.319Z,23.38
2022-08-29T10:14:56.659Z,23.50
2022-08-29T10:15:56.958Z,23.55
2022-08-29T10:16:57.339Z,23.64
2022-08-29T10:17:57.523Z,23.70
2022-08-29T10:18:57.820Z,23.76
2022-08-29T10:19:58.096Z,23.83
2022-08-29T10:20:58.404Z,23.89
2022-08-29T10:21:58.761Z,23.97
2022-08-29T10:22:59.053Z,24.05
2022-08-29T10:23:59.361Z,24.08
2022-08-29T10:24:59.669Z,24.07
2022-08-29T10:25:59.978Z,23.97
2022-08-29T10:27:00.313Z,23.87
2022-08-29T10:28:00.505Z,23.76
2022-08-29T10:29:00.810Z,23.61
2022-08-29T10:30:01.097Z,23.52
2022-08-29T10:31:01.351Z,23.52
2022-08-29T10:32:01.792Z,23.58
2022-08-29T10:33:01.997Z,23.75
2022-08-29T10:34:02.295Z,23.85
2022-08-29T10:35:02.592Z,23.94
2022-08-29T10:36:02.903Z,24.00
2022-08-29T10:37:03.247Z,24.05
2022-08-29T10:38:03.535Z,24.17
2022-08-29T10:39:03.844Z,24.22
2022-08-29T10:40:04.205Z,24.32
2022-08-29T10:41:04.472Z,24.39
2022-08-29T10:42:04.654Z,24.35
2022-08-29T10:43:04.943Z,24.37
2022-08-29T10:44:06.146Z,24.38
2022-08-29T10:45:05.526Z,24.44
2022-08-29T10:46:05.912Z,24.47
2022-08-29T10:47:06.121Z,24.31
2022-08-29T10:48:06.431Z,24.10
2022-08-29T10:49:06.766Z,24.01
2022-08-29T10:50:10.140Z,24.13
2022-08-29T10:51:08.369Z,24.32
2022-08-29T10:52:07.604Z,24.34
2022-08-29T10:53:07.908Z,24.39
2022-08-29T10:54:08.250Z,24.49
2022-08-29T10:55:08.581Z,24.57
2022-08-29T10:56:08.768Z,24.56
2022-08-29T10:57:09.072Z,24.41
2022-08-29T10:58:12.620Z,24.39
2022-08-29T10:59:09.680Z,24.56
2022-08-29T11:00:09.998Z,24.69
2022-08-29T11:01:10.466Z,24.71
2022-08-29T11:02:10.617Z,24.83
2022-08-29T11:03:10.931Z,24.94
2022-08-29T11:04:11.227Z,24.97
2022-08-29T11:05:12.342Z,24.91
2022-08-29T11:06:11.714Z,24.94
2022-08-29T11:07:12.015Z,25.00
2022-08-29T11:08:15.979Z,25.02
2022-08-29T11:09:12.574Z,25.01
2022-08-29T11:10:12.908Z,25.02
2022-08-29T11:11:13.097Z,25.24
2022-08-29T11:12:17.493Z,25.32
2022-08-29T11:13:13.621Z,25.47
2022-08-29T11:14:13.916Z,25.54
2022-08-29T11:15:14.285Z,25.54
2022-08-29T11:16:14.547Z,25.20
2022-08-29T11:17:14.771Z,24.92
2022-08-29T11:18:15.525Z,24.76
2022-08-29T11:19:21.560Z,24.73
2022-08-29T11:20:16.584Z,24.60
2022-08-29T11:21:15.834Z,24.52
2022-08-29T11:22:16.057Z,24.61
2022-08-29T11:23:16.397Z,24.57
2022-08-29T11:24:16.689Z,24.59
2022-08-29T11:25:16.962Z,24.77
2022-08-29T11:26:17.241Z,25.00
2022-08-29T11:27:17.510Z,25.15
2022-08-29T11:28:17.820Z,25.31
2022-08-29T11:29:18.127Z,25.50
2022-08-29T11:30:18.431Z,25.53
2022-08-29T11:31:18.813Z,25.54
2022-08-29T11:32:18.983Z,25.52
2022-08-29T11:33:19.311Z,25.52
2022-08-29T11:34:19.622Z,25.54
2022-08-29T11:35:19.919Z,25.71
2022-08-29T11:36:20.222Z,25.77
2022-08-29T11:37:20.530Z,25.79
2022-08-29T11:38:20.855Z,25.94
2022-08-29T11:39:21.118Z,26.09
2022-08-29T11:40:47.287Z,26.25
2022-08-29T11:41:26.617Z,26.04
2022-08-29T11:43:23.375Z,25.87
2022-08-29T11:44:22.610Z,25.97
2022-08-29T11:45:22.909Z,26.09
2022-08-29T11:46:23.256Z,26.18
2022-08-29T11:47:23.481Z,25.97
2022-08-29T11:48:25.620Z,25.89
2022-08-29T11:49:24.013Z,25.90
2022-08-29T11:50:24.321Z,25.97
2022-08-29T11:51:24.615Z,26.01
2022-08-29T11:52:24.918Z,25.99
2022-08-29T11:53:25.238Z,25.93
2022-08-29T11:54:25.545Z,25.80
2022-08-29T11:55:25.891Z,25.75
2022-08-29T11:56:27.813Z,25.84
2022-08-29T11:57:26.406Z,26.06
2022-08-29T11:58:26.704Z,26.36
2022-08-29T11:59:27.003Z,26.47
2022-08-29T12:00:27.357Z,26.47
2022-08-29T12:01:27.544Z,26.59
2022-08-29T12:02:27.955Z,26.62
2022-08-29T12:03:28.548Z,26.76
2022-08-29T12:04:28.572Z,26.76
2022-08-29T12:05:28.799Z,26.81
2022-08-29T12:06:29.138Z,26.98
2022-08-29T12:07:29.442Z,27.20
2022-08-29T12:08:36.818Z,27.21
2022-08-29T12:09:31.032Z,27.19
2022-08-29T12:10:30.282Z,27.10
2022-08-29T12:11:30.632Z,27.20
2022-08-29T12:12:30.919Z,27.28
2022-08-29T12:13:31.284Z,27.24
2022-08-29T12:14:37.334Z,27.14
2022-08-29T12:15:32.860Z,27.10
2022-08-29T12:16:32.225Z,27.14
2022-08-29T12:17:58.210Z,27.06
2022-08-29T12:18:36.507Z,26.98
2022-08-29T12:19:32.992Z,26.86
2022-08-29T12:20:33.313Z,26.89
2022-08-29T12:21:33.641Z,26.95
2022-08-29T12:22:33.992Z,27.05
2022-08-29T12:23:35.454Z,27.20
2022-08-29T12:24:34.457Z,27.32
2022-08-29T12:25:34.766Z,27.46
2022-08-29T12:26:35.049Z,27.58
2022-08-29T12:27:35.378Z,27.66
2022-08-29T12:28:35.701Z,27.64
2022-08-29T12:29:41.292Z,27.74
2022-08-29T12:30:37.286Z,27.61
2022-08-29T12:31:36.547Z,27.41
2022-08-29T12:32:40.164Z,27.21
2022-08-29T12:33:37.144Z,27.23
2022-08-29T12:34:37.333Z,27.21
2022-08-29T12:35:37.625Z,27.29
2022-08-29T12:36:37.860Z,27.36
2022-08-29T12:37:38.158Z,27.41
2022-08-29T12:38:42.137Z,27.43
2022-08-29T12:39:38.748Z,27.48
2022-08-29T12:40:39.139Z,27.62
2022-08-29T12:41:39.320Z,27.73
2022-08-29T12:42:39.661Z,27.85
2022-08-29T12:43:39.988Z,27.98
2022-08-29T12:44:40.308Z,28.11
2022-08-29T12:45:40.541Z,28.01
2022-08-29T12:46:40.892Z,27.95
2022-08-29T12:47:45.746Z,28.03
2022-08-29T12:48:41.436Z,28.14
2022-08-29T12:49:41.770Z,28.06
2022-08-29T12:50:42.078Z,28.07
2022-08-29T12:51:42.433Z,27.99
2022-08-29T12:52:42.610Z,27.99
2022-08-29T12:53:42.899Z,27.91
2022-08-29T12:54:45.978Z,27.86
2022-08-29T12:55:43.434Z,27.91
2022-08-29T12:56:43.749Z,27.85
2022-08-29T12:57:44.041Z,27.95
2022-08-29T12:58:44.382Z,27.85
2022-08-29T12:59:44.679Z,27.62
2022-08-29T13:00:44.966Z,27.51
2022-08-29T13:01:45.291Z,27.36
2022-08-29T13:02:45.562Z,27.20
2022-08-29T13:03:45.868Z,27.26
2022-08-29T13:04:46.192Z,27.29
2022-08-29T13:05:46.491Z,27.38
2022-08-29T13:06:46.820Z,27.61
2022-08-29T13:07:47.118Z,27.84
2022-08-29T13:08:47.397Z,27.99
2022-08-29T13:09:47.680Z,28.17
2022-08-29T13:10:47.954Z,28.29
2022-08-29T13:11:48.265Z,28.33
2022-08-29T13:12:48.560Z,28.36
2022-08-29T13:13:48.829Z,28.47
2022-08-29T13:14:49.153Z,28.65
2022-08-29T13:15:49.519Z,28.80
2022-08-29T13:16:49.719Z,28.95
2022-08-29T13:17:50.014Z,28.91
2022-08-29T13:19:09.746Z,28.66
2022-08-29T13:19:51.608Z,28.47
2022-08-29T13:20:50.908Z,28.47
2022-08-29T13:21:51.212Z,28.53
2022-08-29T13:22:51.530Z,28.62
2022-08-29T13:23:51.814Z,28.56
2022-08-29T13:24:52.077Z,28.62
2022-08-29T13:25:52.398Z,28.68
2022-08-29T13:27:05.641Z,28.56
2022-08-29T13:27:54.616Z,28.41
2022-08-29T13:28:53.169Z,28.22
2022-08-29T13:29:53.490Z,28.16
2022-08-29T13:30:53.802Z,28.09
2022-08-29T13:31:54.122Z,27.91
2022-08-29T13:32:54.405Z,27.70
2022-08-29T13:33:54.678Z,27.61
2022-08-29T13:34:54.982Z,27.57
2022-08-29T13:35:55.266Z,27.59
2022-08-29T13:36:55.578Z,27.59
2022-08-29T13:37:55.908Z,27.67
2022-08-29T13:38:56.198Z,27.82
2022-08-29T13:39:56.589Z,27.82
2022-08-29T13:40:56.825Z,27.76
2022-08-29T13:41:57.128Z,27.82
2022-08-29T13:42:57.407Z,27.73
2022-08-29T13:43:57.690Z,27.71
2022-08-29T13:44:57.973Z,27.77
2022-08-29T13:45:58.324Z,27.85
2022-08-29T13:46:58.555Z,27.88
2022-08-29T13:47:58.880Z,27.94
2022-08-29T13:48:59.182Z,28.03
2022-08-29T13:49:59.559Z,28.17
2022-08-29T13:51:03.397Z,28.36
2022-08-29T13:52:01.059Z,28.46
2022-08-29T13:53:00.439Z,28.46
2022-08-29T13:54:00.730Z,28.47
2022-08-29T13:55:01.029Z,28.53
2022-08-29T13:56:01.329Z,28.66
2022-08-29T13:57:03.323Z,28.78
2022-08-29T13:58:01.871Z,28.82
2022-08-29T13:59:02.173Z,28.80
2022-08-29T14:00:02.467Z,28.85
2022-08-29T14:01:29.476Z,28.91
2022-08-29T14:02:08.886Z,29.06
2022-08-29T14:03:04.671Z,29.13
2022-08-29T14:04:34.170Z,29.26
2022-08-29T14:05:04.982Z,29.35
2022-08-29T14:06:04.395Z,29.45
2022-08-29T14:07:04.562Z,29.49
2022-08-29T14:08:04.870Z,29.33
2022-08-29T14:09:05.173Z,29.23
2022-08-29T14:10:05.462Z,29.15
2022-08-29T14:11:05.781Z,29.19
2022-08-29T14:12:07.085Z,29.22
2022-08-29T14:13:06.334Z,29.31
2022-08-29T14:14:06.678Z,29.41
2022-08-29T14:15:09.633Z,29.47
2022-08-29T14:16:07.156Z,29.47
2022-08-29T14:17:07.361Z,29.45
2022-08-29T14:18:07.643Z,29.53
2022-08-29T14:19:07.958Z,29.62
2022-08-29T14:20:08.340Z,29.62
2022-08-29T14:21:08.524Z,29.49
2022-08-29T14:22:08.827Z,29.53
2022-08-29T14:23:09.121Z,29.56
2022-08-29T14:24:09.445Z,29.63
2022-08-29T14:25:09.739Z,29.70
2022-08-29T14:26:10.032Z,29.81
2022-08-29T14:27:10.316Z,29.87
2022-08-29T14:28:10.618Z,29.77
2022-08-29T14:29:11.903Z,29.68
2022-08-29T14:30:11.120Z,29.68
2022-08-29T14:31:11.521Z,29.74
2022-08-29T14:32:11.742Z,29.79
2022-08-29T14:33:12.041Z,29.81
2022-08-29T14:34:12.335Z,29.84
2022-08-29T14:35:25.906Z,29.82
2022-08-29T14:36:13.945Z,29.89
2022-08-29T14:37:13.170Z,29.84
2022-08-29T14:38:13.576Z,29.87
2022-08-29T14:39:13.763Z,29.89
2022-08-29T14:40:14.137Z,29.87
2022-08-29T14:41:15.352Z,29.87
2022-08-29T14:42:14.622Z,29.99
2022-08-29T14:43:14.911Z,30.11
2022-08-29T14:44:15.943Z,30.16
2022-08-29T14:45:16.483Z,30.16
2022-08-29T14:46:15.778Z,30.12
2022-08-29T14:47:15.994Z,29.96
2022-08-29T14:48:16.502Z,29.90
2022-08-29T14:49:16.597Z,29.89
2022-08-29T14:50:16.875Z,29.89
2022-08-29T14:51:17.168Z,29.94
2022-08-29T14:52:17.502Z,30.03
2022-08-29T14:53:17.787Z,30.02
2022-08-29T14:54:18.054Z,29.86
2022-08-29T14:55:18.360Z,29.84
2022-08-29T14:56:37.442Z,29.71
2022-08-29T14:57:19.988Z,29.56
2022-08-29T14:58:19.238Z,29.57
2022-08-29T14:59:19.559Z,29.68
2022-08-29T15:00:19.855Z,29.38
2022-08-29T15:01:20.204Z,29.35